TimeCDT,TemperatureF,Dew PointF,Humidity,Sea Level PressureIn,VisibilityMPH,Wind Direction,Wind SpeedMPH,Gust SpeedMPH,PrecipitationIn,Events,Conditions,WindDirDegrees,DateUTC
12:14 AM,8.6,6.8,92,30.14,10.0,North,4.6,-,N/A,,Clear,360,2013-03-23 05:14:00
12:34 AM,6.8,3.2,85,30.14,10.0,Calm,Calm,-,N/A,,Clear,0,2013-03-23 05:34:00
12:53 AM,6.8,3.2,85,30.14,10.0,Calm,Calm,-,N/A,,Clear,0,2013-03-23 05:53:00
1:14 AM,5.0,3.2,92,30.14,10.0,NNW,3.5,-,N/A,,Clear,340,2013-03-23 06:14:00
1:33 AM,1.4,-0.4,92,30.15,10.0,West,3.5,-,N/A,,Clear,270,2013-03-23 06:33:00
1:54 AM,-0.4,-4.0,85,30.14,10.0,NNW,3.5,-,N/A,,Clear,340,2013-03-23 06:54:00
2:14 AM,1.4,-0.4,92,30.14,10.0,NNW,3.5,-,N/A,,Clear,340,2013-03-23 07:14:00
2:33 AM,3.2,-0.4,85,30.14,10.0,Calm,Calm,-,N/A,,Clear,0,2013-03-23 07:33:00
2:54 AM,-0.4,-4.0,85,30.14,10.0,Calm,Calm,-,N/A,,Clear,0,2013-03-23 07:54:00
3:14 AM,-2.2,-7.6,78,30.14,10.0,Calm,Calm,-,N/A,,Clear,0,2013-03-23 08:14:00
3:34 AM,-0.4,-2.2,92,30.15,10.0,Calm,Calm,-,N/A,,Clear,0,2013-03-23 08:34:00
3:54 AM,1.4,-2.2,85,30.14,10.0,WNW,3.5,-,N/A,,Clear,300,2013-03-23 08:54:00
4:14 AM,1.4,-2.2,85,30.14,10.0,WNW,3.5,-,N/A,,Clear,300,2013-03-23 09:14:00
4:34 AM,1.4,-0.4,92,30.14,10.0,WNW,4.6,-,N/A,,Clear,290,2013-03-23 09:34:00
4:54 AM,1.4,-2.2,85,30.14,10.0,NW,4.6,-,N/A,,Scattered Clouds,320,2013-03-23 09:54:00
5:13 AM,1.4,-0.4,92,30.15,10.0,Calm,Calm,-,N/A,,Overcast,0,2013-03-23 10:13:00
5:34 AM,3.2,1.4,92,30.15,10.0,Calm,Calm,-,N/A,,Overcast,0,2013-03-23 10:34:00
5:54 AM,6.8,3.2,85,30.16,10.0,Calm,Calm,-,N/A,,Overcast,0,2013-03-23 10:54:00
6:13 AM,6.8,3.2,85,30.16,10.0,Calm,Calm,-,N/A,,Overcast,0,2013-03-23 11:13:00
6:34 AM,6.8,5.0,92,30.15,10.0,Calm,Calm,-,N/A,,Overcast,0,2013-03-23 11:34:00
6:54 AM,8.6,6.8,92,30.16,10.0,Calm,Calm,-,N/A,,Overcast,0,2013-03-23 11:54:00
7:13 AM,8.6,6.8,92,30.17,10.0,North,3.5,-,N/A,,Overcast,10,2013-03-23 12:13:00
7:34 AM,8.6,5.0,85,30.17,10.0,Calm,Calm,-,N/A,,Overcast,0,2013-03-23 12:34:00
7:54 AM,8.6,5.0,85,30.17,10.0,North,3.5,-,N/A,,Overcast,360,2013-03-23 12:54:00
8:13 AM,8.6,6.8,92,30.17,10.0,Calm,Calm,-,N/A,,Overcast,0,2013-03-23 13:13:00
8:34 AM,8.6,6.8,92,30.17,10.0,Calm,Calm,-,N/A,,Overcast,0,2013-03-23 13:34:00
8:54 AM,8.6,6.8,92,30.17,10.0,WNW,3.5,-,N/A,,Overcast,290,2013-03-23 13:54:00
9:14 AM,10.4,6.8,85,30.18,10.0,Calm,Calm,-,N/A,,Overcast,0,2013-03-23 14:14:00
9:34 AM,10.4,8.6,92,30.18,10.0,NNW,3.5,-,N/A,,Overcast,330,2013-03-23 14:34:00
9:53 AM,12.2,8.6,85,30.18,10.0,NNW,5.8,-,N/A,,Overcast,340,2013-03-23 14:53:00
10:14 AM,10.4,8.6,92,30.18,10.0,NNW,6.9,-,N/A,,Overcast,330,2013-03-23 15:14:00
10:34 AM,12.2,8.6,85,30.18,10.0,NNW,4.6,-,N/A,,Overcast,330,2013-03-23 15:34:00
10:53 AM,12.2,8.6,85,30.19,10.0,NNW,5.8,-,N/A,,Overcast,330,2013-03-23 15:53:00
11:14 AM,12.2,8.6,85,30.19,10.0,NW,5.8,-,N/A,,Overcast,320,2013-03-23 16:14:00
11:34 AM,12.2,8.6,85,30.20,10.0,NW,3.5,-,N/A,,Overcast,310,2013-03-23 16:34:00
11:53 AM,14.0,10.4,86,30.19,10.0,WNW,3.5,-,N/A,,Overcast,290,2013-03-23 16:53:00
12:14 PM,14.0,10.4,86,30.19,10.0,West,4.6,-,N/A,,Overcast,280,2013-03-23 17:14:00
12:34 PM,15.8,10.4,79,30.19,10.0,WNW,5.8,-,N/A,,Scattered Clouds,290,2013-03-23 17:34:00
12:53 PM,15.8,10.4,79,30.18,10.0,NW,6.9,-,N/A,,Clear,310,2013-03-23 17:53:00
1:14 PM,17.6,10.4,73,30.19,10.0,NW,4.6,-,N/A,,Clear,320,2013-03-23 18:14:00
1:34 PM,17.6,12.2,79,30.19,10.0,NW,5.8,-,N/A,,Mostly Cloudy,310,2013-03-23 18:34:00
1:54 PM,17.6,12.2,79,30.18,10.0,NW,5.8,-,N/A,,Overcast,310,2013-03-23 18:54:00
2:14 PM,17.6,12.2,79,30.18,10.0,NNW,6.9,-,N/A,,Overcast,330,2013-03-23 19:14:00
2:34 PM,17.6,12.2,79,30.18,10.0,NNW,5.8,-,N/A,,Overcast,330,2013-03-23 19:34:00
2:54 PM,19.4,12.2,74,30.18,10.0,NNW,6.9,-,N/A,,Overcast,330,2013-03-23 19:54:00
3:14 PM,19.4,14.0,80,30.18,10.0,NW,6.9,-,N/A,,Overcast,320,2013-03-23 20:14:00
3:34 PM,19.4,14.0,80,30.18,10.0,NW,6.9,-,N/A,,Overcast,320,2013-03-23 20:34:00
3:54 PM,19.4,14.0,80,30.17,10.0,NW,8.1,-,N/A,,Overcast,320,2013-03-23 20:54:00
4:14 PM,19.4,15.8,86,30.17,10.0,NW,8.1,-,N/A,,Overcast,320,2013-03-23 21:14:00
4:34 PM,19.4,15.8,86,30.17,10.0,NNW,8.1,-,N/A,,Overcast,330,2013-03-23 21:34:00
4:54 PM,21.2,15.8,80,30.17,10.0,NW,6.9,-,N/A,,Overcast,320,2013-03-23 21:54:00
5:14 PM,21.2,17.6,86,30.17,10.0,NNW,8.1,-,N/A,,Overcast,330,2013-03-23 22:14:00
5:34 PM,21.2,17.6,86,30.17,10.0,NNW,9.2,-,N/A,,Overcast,340,2013-03-23 22:34:00
5:54 PM,21.2,17.6,86,30.17,10.0,NNW,9.2,-,N/A,,Overcast,340,2013-03-23 22:54:00
6:14 PM,21.2,17.6,86,30.17,10.0,NNW,12.7,-,N/A,,Overcast,340,2013-03-23 23:14:00
6:34 PM,21.2,17.6,86,30.18,10.0,NNW,9.2,-,N/A,,Overcast,340,2013-03-23 23:34:00
6:54 PM,21.2,17.6,86,30.18,10.0,NNW,6.9,-,N/A,,Overcast,340,2013-03-23 23:54:00
7:14 PM,21.2,17.6,86,30.19,10.0,NW,4.6,-,N/A,,Overcast,320,2013-03-24 00:14:00
7:34 PM,21.2,17.6,86,30.19,10.0,NW,5.8,-,N/A,,Overcast,310,2013-03-24 00:34:00
7:53 PM,19.4,17.6,93,30.19,10.0,NNW,4.6,-,N/A,,Overcast,330,2013-03-24 00:53:00
8:14 PM,19.4,17.6,93,30.20,10.0,NW,4.6,-,N/A,,Overcast,320,2013-03-24 01:14:00
8:34 PM,19.4,17.6,93,30.20,10.0,NW,6.9,-,N/A,,Overcast,320,2013-03-24 01:34:00
8:54 PM,19.4,17.6,93,30.20,10.0,NW,4.6,-,N/A,,Overcast,310,2013-03-24 01:54:00
9:14 PM,19.4,17.6,93,30.20,10.0,NW,5.8,-,N/A,,Overcast,320,2013-03-24 02:14:00
9:34 PM,19.4,17.6,93,30.20,10.0,NNW,5.8,-,N/A,,Overcast,330,2013-03-24 02:34:00
9:53 PM,19.4,17.6,93,30.20,10.0,NW,5.8,-,N/A,,Overcast,320,2013-03-24 02:53:00
10:14 PM,19.4,17.6,93,30.20,10.0,NW,4.6,-,N/A,,Overcast,320,2013-03-24 03:14:00
10:34 PM,19.4,17.6,93,30.20,10.0,NW,6.9,-,N/A,Snow,Light Snow,310,2013-03-24 03:34:00
10:54 PM,19.4,17.6,93,30.20,7.0,NW,5.8,-,N/A,Snow,Light Snow,320,2013-03-24 03:54:00
11:14 PM,19.4,17.6,93,30.19,3.0,NNW,4.6,-,N/A,Snow,Light Snow,340,2013-03-24 04:14:00
11:34 PM,19.4,17.6,93,30.19,7.0,NNW,3.5,-,N/A,Snow,Light Snow,340,2013-03-24 04:34:00
11:54 PM,19.4,17.6,93,30.19,10.0,Calm,Calm,-,N/A,,Overcast,0,2013-03-24 04:54:00